Terminal Aerodrome Forecast
Issued by NWS Wilmington, OH

Current Version | Previous Version | Text Only | Print | Product List | Glossary Off
Versions: 1 2 3 4 5 6 7 8 9 10 11 12 13 14 15 16 17 18 19

463
FTUS41 KILN 291132
TAFDAY
TAF
KDAY 291132Z 2912/3012 19007KT P6SM SCT080 BKN120
      TEMPO 2912/2913 VRB10G20KT 5SM -TSRA SCT040CB BKN080 OVC100
     FM291900 21010KT P6SM VCTS SCT040CB BKN250
     FM292100 23011KT P6SM SCT040 BKN250
     FM292300 24007KT P6SM VCTS BKN050CB
     FM300200 24005KT P6SM BKN050
     FM300900 30004KT P6SM FEW040=

USA.gov is the U.S. government's official web portal to all federal, state and local government web resources and services.